Time;durP1;ratioP1;P1;durP2;ratioP2;P2;SDS_P1;SDS_P2;PMS_P1;PMS_P2;Temp;Humidity;BMP_temperature;BMP_pressure;BME280_temperature;BME280_humidity;BME280_pressure;Samples;Min_cycle;Max_cycle;Signal;HPM_P1;HPM_P2
2022/08/30 00:01:41;;;;;;;7.72;4.32;;;25.70;57.20;;;;;;6126751;28;80717;-63
2022/08/30 00:04:41;;;;;;;12.00;4.35;;;25.70;57.10;;;;;;6129343;28;80859;-63
2022/08/30 00:07:42;;;;;;;6.40;3.90;;;25.70;57.20;;;;;;6128202;28;81758;-64
2022/08/30 00:10:42;;;;;;;8.60;4.28;;;25.70;57.40;;;;;;6127336;28;80841;-64
2022/08/30 00:13:43;;;;;;;11.43;5.00;;;25.70;57.40;;;;;;6126072;28;80900;-66
2022/08/30 00:16:43;;;;;;;8.95;5.53;;;25.80;57.30;;;;;;6132022;28;80330;-64
2022/08/30 00:19:44;;;;;;;8.05;4.93;;;25.80;57.40;;;;;;6131348;28;84865;-64
2022/08/30 00:22:44;;;;;;;5.97;4.55;;;25.80;57.30;;;;;;6153480;28;80374;-65
2022/08/30 00:25:45;;;;;;;7.95;4.75;;;25.70;57.20;;;;;;6128291;28;80947;-64
2022/08/30 00:28:45;;;;;;;7.50;5.13;;;25.70;57.20;;;;;;6149495;28;80934;-64
2022/08/30 00:31:46;;;;;;;6.25;3.88;;;25.70;57.10;;;;;;6137316;28;80855;-64
2022/08/30 00:34:47;;;;;;;8.00;4.03;;;25.70;57.00;;;;;;6135900;28;80957;-63
2022/08/30 00:37:47;;;;;;;10.27;4.38;;;25.70;57.10;;;;;;6151791;28;83740;-63
2022/08/30 00:40:48;;;;;;;10.93;4.53;;;25.70;57.10;;;;;;6144923;28;80807;-63
2022/08/30 00:43:49;;;;;;;8.18;4.13;;;25.70;57.00;;;;;;6133524;28;82493;-63
2022/08/30 00:46:49;;;;;;;14.43;5.18;;;25.70;57.00;;;;;;6148328;28;80625;-63
2022/08/30 00:49:50;;;;;;;9.68;4.32;;;25.70;57.10;;;;;;6153412;28;80509;-63
2022/08/30 00:52:50;;;;;;;8.27;4.05;;;25.70;57.20;;;;;;6141458;28;81459;-63
2022/08/30 00:55:50;;;;;;;19.17;4.40;;;25.70;57.20;;;;;;6146825;28;80769;-63
2022/08/30 00:58:51;;;;;;;10.35;4.07;;;25.70;57.20;;;;;;6150919;28;80281;-64
2022/08/30 01:01:52;;;;;;;6.93;4.35;;;25.70;57.10;;;;;;6154057;28;80731;-63
2022/08/30 01:04:54;;;;;;;6.22;3.92;;;25.70;57.00;;;;;;6151340;28;82032;-63
2022/08/30 01:07:54;;;;;;;7.68;4.18;;;25.70;56.90;;;;;;6150664;28;84857;-63
2022/08/30 01:10:55;;;;;;;8.45;4.03;;;25.60;56.90;;;;;;6153993;28;81271;-63
2022/08/30 01:13:56;;;;;;;11.57;4.15;;;25.60;56.80;;;;;;6127674;28;80842;-63
2022/08/30 01:16:57;;;;;;;6.60;3.90;;;25.60;56.80;;;;;;6124040;28;80984;-63
2022/08/30 01:19:57;;;;;;;7.22;4.45;;;25.60;56.80;;;;;;6124631;28;83670;-63
2022/08/30 01:22:58;;;;;;;8.68;3.60;;;25.60;56.90;;;;;;6126669;28;80825;-65
2022/08/30 01:25:58;;;;;;;7.85;4.93;;;25.60;57.10;;;;;;6149876;28;83213;-64
2022/08/30 01:28:59;;;;;;;10.00;4.22;;;25.60;57.10;;;;;;6125944;28;80713;-63
2022/08/30 01:32:00;;;;;;;7.40;4.38;;;25.60;57.00;;;;;;6125329;28;81330;-64
2022/08/30 01:35:00;;;;;;;7.93;4.47;;;25.60;57.00;;;;;;6127690;28;80392;-60
2022/08/30 01:38:01;;;;;;;7.30;4.05;;;25.60;57.00;;;;;;6127788;28;81076;-59
2022/08/30 01:41:01;;;;;;;8.48;4.10;;;25.60;57.00;;;;;;6110819;28;80261;-59
2022/08/30 01:44:02;;;;;;;7.05;3.60;;;25.60;57.20;;;;;;6108048;28;80371;-59
2022/08/30 01:47:02;;;;;;;12.32;4.90;;;25.70;57.20;;;;;;6102589;28;80732;-59
2022/08/30 01:50:03;;;;;;;7.25;4.22;;;25.60;57.10;;;;;;6114118;28;80802;-59
2022/08/30 01:53:04;;;;;;;10.15;4.28;;;25.60;57.00;;;;;;6107349;28;89241;-58
2022/08/30 01:56:04;;;;;;;7.65;4.60;;;25.60;56.90;;;;;;6113154;28;81180;-59
2022/08/30 01:59:05;;;;;;;14.15;4.25;;;25.60;57.10;;;;;;6101105;28;81381;-59
2022/08/30 02:02:05;;;;;;;10.68;5.03;;;25.60;56.90;;;;;;6102130;28;80425;-58
2022/08/30 02:05:06;;;;;;;10.98;4.90;;;25.60;56.80;;;;;;6104498;28;80270;-59
2022/08/30 02:08:06;;;;;;;5.95;3.70;;;25.60;56.70;;;;;;6109621;28;80307;-59
2022/08/30 02:11:08;;;;;;;7.82;3.95;;;25.60;56.90;;;;;;6129206;28;80454;-59
2022/08/30 02:14:08;;;;;;;7.57;4.47;;;25.60;56.80;;;;;;6124375;28;83656;-63
2022/08/30 02:17:10;;;;;;;7.35;3.53;;;25.50;56.60;;;;;;6110968;28;81615;-63
2022/08/30 02:20:11;;;;;;;7.57;4.35;;;25.50;56.60;;;;;;6125483;28;81083;-62
2022/08/30 02:23:11;;;;;;;8.43;5.15;;;25.50;56.60;;;;;;6116336;28;80612;-63
2022/08/30 02:26:12;;;;;;;9.63;4.35;;;25.50;56.50;;;;;;6109397;28;80377;-62
2022/08/30 02:29:12;;;;;;;9.38;4.45;;;25.50;56.60;;;;;;6123257;28;80736;-63
2022/08/30 02:32:13;;;;;;;7.97;3.63;;;25.50;56.70;;;;;;6109339;28;80624;-62
2022/08/30 02:35:13;;;;;;;7.95;3.63;;;25.50;56.80;;;;;;6119613;28;80433;-62
2022/08/30 02:38:13;;;;;;;7.78;4.30;;;25.50;56.80;;;;;;6128357;28;81558;-62
2022/08/30 02:41:14;;;;;;;8.05;4.05;;;25.50;56.80;;;;;;6124732;28;85156;-62
2022/08/30 02:44:14;;;;;;;6.38;4.00;;;25.50;56.70;;;;;;6136006;28;80408;-63
2022/08/30 02:47:15;;;;;;;7.35;4.00;;;25.50;56.70;;;;;;6148017;28;80486;-65
2022/08/30 02:50:15;;;;;;;7.97;4.07;;;25.50;56.80;;;;;;6117266;28;80826;-65
2022/08/30 02:53:16;;;;;;;7.75;3.65;;;25.50;56.90;;;;;;6123154;28;80855;-64
2022/08/30 02:56:16;;;;;;;6.68;3.88;;;25.50;56.80;;;;;;6126928;28;81629;-64
2022/08/30 02:59:17;;;;;;;6.75;3.75;;;25.50;56.70;;;;;;6134861;28;81362;-62
2022/08/30 03:02:17;;;;;;;5.70;4.15;;;25.50;56.60;;;;;;6140688;28;80726;-63
2022/08/30 03:05:18;;;;;;;8.15;4.10;;;25.50;56.40;;;;;;6146928;28;87223;-64
2022/08/30 03:08:18;;;;;;;7.82;4.18;;;25.50;56.60;;;;;;6130651;28;80451;-58
2022/08/30 03:11:21;;;;;;;8.60;3.92;;;25.50;56.70;;;;;;6145447;28;82397;-58
2022/08/30 03:14:21;;;;;;;7.22;3.88;;;25.50;56.80;;;;;;6131292;28;80408;-58
2022/08/30 03:17:22;;;;;;;7.90;3.90;;;25.50;56.70;;;;;;6146787;28;80952;-58
2022/08/30 03:20:22;;;;;;;6.63;4.15;;;25.50;56.70;;;;;;6148229;28;81095;-58
2022/08/30 03:23:23;;;;;;;8.32;4.05;;;25.50;56.80;;;;;;6149696;28;80530;-58
2022/08/30 03:26:23;;;;;;;11.93;4.88;;;25.50;56.80;;;;;;6147120;28;80040;-61
2022/08/30 03:29:24;;;;;;;14.82;4.90;;;25.50;56.80;;;;;;6150071;28;83595;-61
2022/08/30 03:32:24;;;;;;;6.30;4.30;;;25.40;56.70;;;;;;6152826;28;81206;-61
2022/08/30 03:35:25;;;;;;;8.07;4.53;;;25.50;56.80;;;;;;6152472;28;86854;-61
2022/08/30 03:38:25;;;;;;;7.55;4.38;;;25.50;56.50;;;;;;6151490;28;84219;-61
2022/08/30 03:41:26;;;;;;;7.28;3.70;;;25.40;56.30;;;;;;6153384;28;80580;-61
2022/08/30 03:44:26;;;;;;;9.27;4.47;;;25.40;56.30;;;;;;6150354;28;81895;-58
2022/08/30 03:47:27;;;;;;;6.25;3.92;;;25.40;56.20;;;;;;6149112;28;80267;-59
2022/08/30 03:50:28;;;;;;;8.88;4.10;;;25.40;56.20;;;;;;6142835;28;80702;-59
2022/08/30 03:53:28;;;;;;;8.32;4.40;;;25.40;56.20;;;;;;6147980;28;81544;-59
2022/08/30 03:56:29;;;;;;;5.93;3.80;;;25.30;56.00;;;;;;6135550;28;80532;-59
2022/08/30 03:59:29;;;;;;;7.68;4.53;;;25.30;55.80;;;;;;6136615;28;85958;-60
2022/08/30 04:02:29;;;;;;;6.80;3.95;;;25.30;55.70;;;;;;6145395;28;80501;-60
2022/08/30 04:05:30;;;;;;;6.20;3.97;;;25.30;55.70;;;;;;6140335;28;87469;-61
2022/08/30 04:08:30;;;;;;;7.60;4.03;;;25.30;55.70;;;;;;6151153;28;80189;-60
2022/08/30 04:11:31;;;;;;;7.78;3.95;;;25.20;55.30;;;;;;6148218;28;80384;-61
2022/08/30 04:14:31;;;;;;;14.90;5.03;;;25.20;55.20;;;;;;6141645;28;80222;-62
2022/08/30 04:17:32;;;;;;;10.50;4.00;;;25.30;55.20;;;;;;6142176;28;80759;-60
2022/08/30 04:20:32;;;;;;;6.00;3.72;;;25.30;55.50;;;;;;6136663;28;80809;-60
2022/08/30 04:23:33;;;;;;;8.63;4.03;;;25.30;56.00;;;;;;6126080;28;82688;-58
2022/08/30 04:26:34;;;;;;;12.52;5.55;;;25.30;55.60;;;;;;6108722;28;83564;-59
2022/08/30 04:29:35;;;;;;;8.68;4.60;;;25.40;55.80;;;;;;6108436;28;81532;-60
2022/08/30 04:32:35;;;;;;;10.93;4.45;;;25.40;55.70;;;;;;6092509;28;83192;-69
2022/08/30 04:35:36;;;;;;;10.27;4.60;;;25.40;55.90;;;;;;6093569;28;81270;-58
2022/08/30 04:38:36;;;;;;;12.63;4.65;;;25.40;55.90;;;;;;6103498;28;80248;-59
2022/08/30 04:41:39;;;;;;;6.35;4.03;;;25.40;56.00;;;;;;6103511;28;81378;-58
2022/08/30 04:44:40;;;;;;;7.72;4.20;;;25.50;56.10;;;;;;6116616;28;83205;-60
2022/08/30 04:47:40;;;;;;;8.15;5.03;;;25.50;55.90;;;;;;6110262;28;86931;-59
2022/08/30 04:50:41;;;;;;;12.05;4.78;;;25.50;55.90;;;;;;6103256;28;80880;-58
2022/08/30 04:53:45;;;;;;;13.75;4.90;;;25.50;55.90;;;;;;6099590;28;80801;-58
2022/08/30 04:56:45;;;;;;;10.02;4.45;;;25.50;56.00;;;;;;6110747;28;81030;-61
2022/08/30 04:59:46;;;;;;;12.05;4.88;;;25.50;56.00;;;;;;6100343;28;81156;-61
2022/08/30 05:02:46;;;;;;;11.35;4.43;;;25.50;56.10;;;;;;6106565;28;82135;-59
2022/08/30 05:05:47;;;;;;;6.15;4.20;;;25.50;56.10;;;;;;6114806;28;81370;-59
2022/08/30 05:08:47;;;;;;;8.65;4.38;;;25.60;56.30;;;;;;6114217;28;80799;-64
2022/08/30 05:11:48;;;;;;;8.52;3.83;;;25.60;56.40;;;;;;6108987;28;81500;-59
2022/08/30 05:14:48;;;;;;;12.90;5.57;;;25.60;56.30;;;;;;6119038;28;80542;-59
2022/08/30 05:17:49;;;;;;;7.28;4.65;;;25.60;56.40;;;;;;6117176;28;80948;-58
2022/08/30 05:20:49;;;;;;;7.38;4.25;;;25.60;56.50;;;;;;6122761;28;83425;-59
2022/08/30 05:23:50;;;;;;;10.55;4.35;;;25.70;56.60;;;;;;6123549;28;80661;-59
2022/08/30 05:26:50;;;;;;;8.25;4.10;;;25.70;56.60;;;;;;6104709;28;81455;-59
2022/08/30 05:29:51;;;;;;;9.55;3.95;;;25.70;56.80;;;;;;6117806;28;80503;-59
2022/08/30 05:32:51;;;;;;;9.07;3.83;;;25.70;56.70;;;;;;6124066;28;81725;-59
2022/08/30 05:35:52;;;;;;;14.35;4.75;;;25.70;56.80;;;;;;6122989;28;81000;-60
2022/08/30 05:38:52;;;;;;;10.88;4.18;;;25.70;56.90;;;;;;6120529;28;80823;-61
2022/08/30 05:41:53;;;;;;;9.50;4.70;;;25.70;56.90;;;;;;6123671;28;80274;-59
2022/08/30 05:44:53;;;;;;;9.95;4.90;;;25.70;56.90;;;;;;6125833;28;80663;-60
2022/08/30 05:47:54;;;;;;;11.00;4.65;;;25.70;57.10;;;;;;6116471;28;81841;-59
2022/08/30 05:50:55;;;;;;;7.68;4.25;;;25.80;57.00;;;;;;6097252;28;81005;-59
2022/08/30 05:53:55;;;;;;;6.38;3.97;;;25.80;57.00;;;;;;6109255;28;80757;-57
2022/08/30 05:56:56;;;;;;;8.88;4.15;;;25.80;56.90;;;;;;6112726;28;83651;-60
2022/08/30 05:59:56;;;;;;;6.93;4.22;;;25.80;57.10;;;;;;6096975;28;83254;-58
2022/08/30 06:02:57;;;;;;;9.05;4.90;;;25.80;57.00;;;;;;6100981;28;83713;-58
2022/08/30 06:05:58;;;;;;;6.43;4.10;;;25.80;57.00;;;;;;6093622;28;80535;-58
2022/08/30 06:08:58;;;;;;;11.82;4.47;;;25.80;57.00;;;;;;6099988;28;80621;-60
2022/08/30 06:11:59;;;;;;;8.50;4.10;;;25.90;57.30;;;;;;6103148;28;81436;-60
2022/08/30 06:14:59;;;;;;;6.15;3.63;;;25.90;57.40;;;;;;6126311;28;81155;-60
2022/08/30 06:18:00;;;;;;;13.50;3.67;;;25.90;57.70;;;;;;6123460;28;80489;-60
2022/08/30 06:21:00;;;;;;;8.95;4.25;;;25.90;57.60;;;;;;6127180;28;80538;-61
2022/08/30 06:24:01;;;;;;;12.38;4.78;;;25.90;57.70;;;;;;6125448;28;80266;-61
2022/08/30 06:27:01;;;;;;;8.73;4.13;;;25.90;57.50;;;;;;6122385;28;80505;-61
2022/08/30 06:30:02;;;;;;;7.38;4.88;;;26.00;58.30;;;;;;6124565;28;80887;-60
2022/08/30 06:33:02;;;;;;;22.33;4.68;;;25.90;57.70;;;;;;6098284;28;82250;-60
2022/08/30 06:36:03;;;;;;;7.22;3.50;;;26.00;57.80;;;;;;6102864;28;83371;-59
2022/08/30 06:39:03;;;;;;;9.63;4.50;;;25.90;57.70;;;;;;6101392;28;81248;-57
2022/08/30 06:42:04;;;;;;;7.95;3.97;;;26.00;57.80;;;;;;6102194;28;80724;-59
2022/08/30 06:45:06;;;;;;;10.23;4.47;;;26.00;57.70;;;;;;6115547;28;81539;-57
2022/08/30 06:48:07;;;;;;;12.95;4.80;;;26.00;57.80;;;;;;6077517;28;84707;-61
2022/08/30 06:51:08;;;;;;;7.97;4.00;;;26.00;57.60;;;;;;6072596;28;83248;-58
2022/08/30 06:54:08;;;;;;;11.80;4.93;;;25.90;57.30;;;;;;6098164;28;89594;-61
2022/08/30 06:57:11;;;;;;;11.85;4.30;;;25.60;56.40;;;;;;6113344;28;80533;-59
2022/08/30 07:00:11;;;;;;;8.60;4.05;;;25.40;57.00;;;;;;6120085;28;83873;-63
2022/08/30 07:03:12;;;;;;;10.18;4.13;;;25.40;57.30;;;;;;6116102;28;80539;-59
2022/08/30 07:06:13;;;;;;;8.27;4.43;;;25.40;57.10;;;;;;6118875;28;84019;-60
2022/08/30 07:09:13;;;;;;;9.35;4.85;;;25.30;57.40;;;;;;6123197;28;80482;-59
2022/08/30 07:12:14;;;;;;;9.13;3.70;;;25.10;57.90;;;;;;6119708;28;80680;-61
2022/08/30 07:15:15;;;;;;;12.48;5.20;;;25.20;57.60;;;;;;6121262;28;80584;-61
2022/08/30 07:21:34;;;;;;;11.05;4.57;;;25.40;57.50;;;;;;6115762;28;80354;-62
2022/08/30 07:24:36;;;;;;;9.95;4.30;;;25.40;57.90;;;;;;6124445;28;83688;-60
2022/08/30 07:27:36;;;;;;;17.02;5.43;;;25.50;58.00;;;;;;6125697;28;84971;-59
2022/08/30 07:30:37;;;;;;;10.48;4.68;;;25.60;58.60;;;;;;6125292;28;80078;-58
2022/08/30 07:33:39;;;;;;;10.65;4.30;;;25.70;58.40;;;;;;6119758;28;81116;-58
2022/08/30 07:36:39;;;;;;;12.60;4.88;;;25.70;58.40;;;;;;6123825;28;80853;-58
2022/08/30 07:39:40;;;;;;;8.30;4.53;;;25.70;58.20;;;;;;6124176;28;80606;-58
2022/08/30 07:42:40;;;;;;;10.35;4.07;;;25.70;58.40;;;;;;6122153;28;83414;-59
2022/08/30 07:45:41;;;;;;;36.70;5.25;;;25.70;58.10;;;;;;6106393;28;80735;-59
2022/08/30 07:48:41;;;;;;;9.77;4.43;;;25.80;57.70;;;;;;6121275;28;81032;-59
2022/08/30 07:51:42;;;;;;;7.90;4.70;;;25.70;57.40;;;;;;6105962;28;85652;-58
2022/08/30 07:54:42;;;;;;;9.48;5.18;;;25.70;57.40;;;;;;6116412;28;80814;-58
2022/08/30 07:57:43;;;;;;;14.30;5.18;;;25.60;57.20;;;;;;6104861;28;82835;-60
2022/08/30 08:00:43;;;;;;;8.55;4.55;;;25.50;57.40;;;;;;6115068;28;80932;-58
2022/08/30 08:03:44;;;;;;;10.35;4.80;;;25.40;57.40;;;;;;6125886;28;83113;-58
2022/08/30 08:06:44;;;;;;;48.70;8.60;;;25.40;57.60;;;;;;6120117;28;80599;-58
2022/08/30 08:09:45;;;;;;;38.15;6.97;;;25.10;57.90;;;;;;6114668;28;81135;-58
2022/08/30 08:12:45;;;;;;;40.70;7.65;;;24.90;58.70;;;;;;6118483;28;81968;-58
2022/08/30 08:15:46;;;;;;;22.65;6.05;;;25.10;58.70;;;;;;6112615;28;80848;-60
2022/08/30 08:18:47;;;;;;;18.65;5.68;;;25.20;58.40;;;;;;6125269;28;84239;-60
2022/08/30 08:21:47;;;;;;;19.55;5.05;;;25.10;58.40;;;;;;6111011;28;81151;-60
2022/08/30 08:24:48;;;;;;;13.50;5.82;;;25.20;58.70;;;;;;6113476;28;83231;-60
2022/08/30 08:27:49;;;;;;;16.15;4.32;;;25.40;58.30;;;;;;6103383;28;80188;-60
2022/08/30 08:30:50;;;;;;;19.30;5.30;;;25.50;58.90;;;;;;6123841;28;80403;-60
2022/08/30 08:33:50;;;;;;;12.88;5.07;;;25.60;58.10;;;;;;6125776;28;85362;-60
2022/08/30 08:36:51;;;;;;;13.55;5.13;;;25.70;58.10;;;;;;6129271;28;80939;-60
2022/08/30 08:39:51;;;;;;;9.85;3.78;;;25.50;58.60;;;;;;6125925;28;83497;-60
2022/08/30 08:42:52;;;;;;;8.90;4.88;;;25.60;58.10;;;;;;6127044;28;80495;-58
2022/08/30 08:45:53;;;;;;;9.48;4.70;;;25.50;57.80;;;;;;6106115;28;83458;-57
2022/08/30 08:48:54;;;;;;;7.20;4.38;;;25.50;57.90;;;;;;6101633;28;80516;-58
2022/08/30 08:55:14;;;;;;;13.80;4.68;;;25.30;57.80;;;;;;6123857;28;80763;-58
2022/08/30 08:58:14;;;;;;;10.18;4.72;;;25.10;58.40;;;;;;6138381;28;86936;-59
2022/08/30 09:01:15;;;;;;;6.30;3.58;;;25.30;58.50;;;;;;6128442;28;80420;-58
2022/08/30 09:04:16;;;;;;;15.77;3.80;;;25.50;58.30;;;;;;6125682;28;80080;-59
2022/08/30 09:07:16;;;;;;;18.23;4.97;;;25.60;57.70;;;;;;6113582;28;80663;-59
2022/08/30 09:10:17;;;;;;;8.52;4.43;;;25.80;57.60;;;;;;6140733;28;80189;-59
2022/08/30 09:13:17;;;;;;;8.30;4.13;;;25.90;57.40;;;;;;6133483;28;80449;-58
2022/08/30 09:16:18;;;;;;;9.88;4.25;;;25.80;57.30;;;;;;6136410;28;82813;-59
2022/08/30 09:19:18;;;;;;;12.52;4.50;;;25.70;57.10;;;;;;6128172;28;80088;-58
2022/08/30 09:22:20;;;;;;;9.32;4.72;;;25.70;57.20;;;;;;6146734;28;85352;-58
2022/08/30 09:25:21;;;;;;;9.13;4.15;;;25.70;57.70;;;;;;6138275;28;83286;-58
2022/08/30 09:28:21;;;;;;;7.35;3.80;;;25.70;57.80;;;;;;6140793;28;80352;-58
2022/08/30 09:31:23;;;;;;;7.05;3.72;;;25.70;56.90;;;;;;6149943;28;82681;-59
2022/08/30 09:34:23;;;;;;;18.58;4.75;;;25.70;56.90;;;;;;6150301;28;86739;-59
2022/08/30 09:37:24;;;;;;;6.45;3.58;;;25.90;57.10;;;;;;6151157;28;80635;-59
2022/08/30 09:40:25;;;;;;;9.90;5.05;;;25.80;55.90;;;;;;6144894;28;80679;-58
2022/08/30 09:43:26;;;;;;;7.05;3.80;;;25.70;55.30;;;;;;6153267;28;80790;-58
2022/08/30 09:46:27;;;;;;;18.73;4.13;;;25.60;55.90;;;;;;6144019;28;81552;-58
2022/08/30 09:49:28;;;;;;;8.55;4.35;;;25.80;56.20;;;;;;6156537;28;83397;-59
2022/08/30 09:52:29;;;;;;;9.63;3.90;;;25.80;56.30;;;;;;6135905;28;84758;-58
2022/08/30 09:55:29;;;;;;;8.23;4.40;;;25.70;56.20;;;;;;6140444;28;80506;-59
2022/08/30 09:58:30;;;;;;;6.15;3.85;;;25.80;56.20;;;;;;6144893;28;80491;-58
2022/08/30 10:01:30;;;;;;;9.30;4.05;;;25.70;56.60;;;;;;6149098;28;80208;-59
2022/08/30 10:04:31;;;;;;;5.97;4.03;;;25.80;57.10;;;;;;6145327;28;84014;-59
2022/08/30 10:07:33;;;;;;;9.18;4.18;;;25.90;56.60;;;;;;6150395;28;80300;-59
2022/08/30 10:10:34;;;;;;;6.47;3.85;;;25.90;56.70;;;;;;6129131;28;81140;-58
2022/08/30 10:13:35;;;;;;;11.23;4.30;;;26.00;56.80;;;;;;6106485;28;80929;-59
2022/08/30 10:16:35;;;;;;;7.55;4.63;;;26.00;57.00;;;;;;6108424;28;83059;-58
2022/08/30 10:19:36;;;;;;;10.07;4.68;;;25.90;57.20;;;;;;6108088;28;81251;-63
2022/08/30 10:22:37;;;;;;;15.57;4.47;;;26.00;57.10;;;;;;6110786;28;81222;-63
2022/08/30 10:25:37;;;;;;;10.30;4.60;;;26.10;57.50;;;;;;6121310;28;81221;-58
2022/08/30 10:28:38;;;;;;;12.02;4.35;;;26.00;57.30;;;;;;6113893;28;84421;-59
2022/08/30 10:31:38;;;;;;;29.92;9.30;;;26.10;57.10;;;;;;6118159;28;82471;-58
2022/08/30 10:34:39;;;;;;;54.47;16.27;;;26.20;57.30;;;;;;6111502;28;83059;-59
2022/08/30 10:37:40;;;;;;;49.90;19.30;;;26.30;57.30;;;;;;6107185;28;83063;-59
2022/08/30 10:44:00;;;;;;;22.23;10.95;;;26.20;57.60;;;;;;6104286;28;83134;-59
2022/08/30 10:47:01;;;;;;;31.17;12.23;;;26.10;56.90;;;;;;6123838;28;82988;-59
2022/08/30 10:50:01;;;;;;;51.92;16.55;;;26.10;57.50;;;;;;6102017;28;82767;-58
2022/08/30 10:53:02;;;;;;;47.45;24.60;;;26.30;57.90;;;;;;6123892;28;85325;-58
2022/08/30 10:56:02;;;;;;;81.70;36.78;;;26.40;58.20;;;;;;6102613;28;83427;-59
2022/08/30 10:59:03;;;;;;;73.60;36.35;;;26.40;57.70;;;;;;6112394;28;83074;-59
2022/08/30 11:02:03;;;;;;;72.40;32.97;;;26.50;57.90;;;;;;6101291;28;84558;-58
2022/08/30 11:05:04;;;;;;;72.70;33.22;;;26.50;57.90;;;;;;6106308;28;83184;-58
2022/08/30 11:08:04;;;;;;;98.18;58.30;;;26.50;57.70;;;;;;6104552;28;83217;-59
2022/08/30 11:11:05;;;;;;;81.30;40.28;;;26.50;57.60;;;;;;6094909;28;83579;-59
2022/08/30 11:14:05;;;;;;;68.25;33.40;;;26.50;57.50;;;;;;6112555;28;85567;-60
2022/08/30 11:17:06;;;;;;;50.92;28.60;;;26.60;56.70;;;;;;6111768;28;83358;-59
2022/08/30 11:20:06;;;;;;;49.67;21.08;;;26.60;56.40;;;;;;6122238;28;86454;-59
2022/08/30 11:23:07;;;;;;;32.38;18.35;;;26.70;56.30;;;;;;6120391;28;83041;-61
2022/08/30 11:26:07;;;;;;;29.98;16.48;;;26.70;56.10;;;;;;6099070;28;83122;-61
2022/08/30 11:29:08;;;;;;;27.88;16.10;;;26.70;56.20;;;;;;6117106;28;84519;-59
2022/08/30 11:32:08;;;;;;;27.25;13.63;;;26.70;56.70;;;;;;6146504;28;84882;-57
2022/08/30 11:35:09;;;;;;;17.50;9.32;;;26.70;56.40;;;;;;6151701;28;83066;-58
2022/08/30 11:38:09;;;;;;;15.02;9.40;;;26.60;56.20;;;;;;6155887;28;83080;-58
2022/08/30 11:41:10;;;;;;;22.70;8.40;;;26.60;56.40;;;;;;6152958;28;80465;-61
2022/08/30 11:44:10;;;;;;;13.52;7.00;;;26.60;56.40;;;;;;6153403;28;81853;-62
2022/08/30 11:47:11;;;;;;;11.40;6.28;;;26.60;56.80;;;;;;6154072;28;80485;-61
2022/08/30 11:50:12;;;;;;;10.40;5.93;;;26.60;56.70;;;;;;6145006;28;81791;-59
2022/08/30 11:53:13;;;;;;;11.38;5.93;;;26.60;56.70;;;;;;6139688;28;80152;-59
2022/08/30 11:56:13;;;;;;;8.25;5.40;;;26.60;56.90;;;;;;6137595;28;81990;-59
2022/08/30 11:59:14;;;;;;;15.27;5.63;;;26.70;56.70;;;;;;6128905;28;80639;-59
2022/08/30 12:02:14;;;;;;;9.82;4.82;;;26.70;56.40;;;;;;6137973;28;80434;-59
2022/08/30 12:05:15;;;;;;;7.97;4.20;;;26.70;55.40;;;;;;6142049;28;80352;-59
2022/08/30 12:08:15;;;;;;;10.23;4.45;;;26.60;55.50;;;;;;6154082;28;80770;-59
2022/08/30 12:11:16;;;;;;;6.70;4.38;;;26.60;56.10;;;;;;6129980;28;80360;-59
2022/08/30 12:14:16;;;;;;;7.28;3.70;;;26.60;56.20;;;;;;6144259;28;80766;-59
2022/08/30 12:20:36;;;;;;;8.05;3.55;;;26.50;56.40;;;;;;6146678;28;85208;-59
2022/08/30 12:23:37;;;;;;;8.40;3.60;;;26.50;56.40;;;;;;6129204;28;80370;-59
2022/08/30 12:26:37;;;;;;;6.32;3.50;;;26.50;56.30;;;;;;6131064;28;85722;-59
2022/08/30 12:29:38;;;;;;;4.00;3.10;;;26.50;56.10;;;;;;6128331;28;80341;-59
2022/08/30 12:32:38;;;;;;;5.78;3.28;;;26.40;56.10;;;;;;6119390;28;80443;-59
2022/08/30 12:35:39;;;;;;;4.88;3.45;;;26.50;56.00;;;;;;6138206;28;80409;-59
2022/08/30 12:38:39;;;;;;;6.50;3.55;;;26.50;56.20;;;;;;6126165;28;81524;-59
2022/08/30 12:41:40;;;;;;;10.82;3.97;;;26.50;56.10;;;;;;6127932;28;80652;-59
2022/08/30 12:44:40;;;;;;;4.68;3.38;;;26.50;55.80;;;;;;6128471;28;81050;-58
2022/08/30 12:47:41;;;;;;;4.25;3.47;;;26.50;55.70;;;;;;6127799;28;80452;-59
2022/08/30 12:50:41;;;;;;;6.15;3.03;;;26.40;55.20;;;;;;6114650;28;84725;-58
2022/08/30 12:53:44;;;;;;;4.60;3.33;;;26.40;55.90;;;;;;6125326;28;87812;-65
2022/08/30 12:56:45;;;;;;;4.22;2.97;;;26.40;55.90;;;;;;6113480;28;80778;-62
2022/08/30 12:59:45;;;;;;;6.88;3.20;;;26.40;57.20;;;;;;6124924;28;81855;-67
2022/08/30 13:02:46;;;;;;;5.20;3.17;;;26.40;56.70;;;;;;6124761;28;80684;-64
2022/08/30 13:05:46;;;;;;;7.15;3.42;;;26.50;56.40;;;;;;6126183;28;80338;-66
2022/08/30 13:08:47;;;;;;;6.57;3.97;;;26.50;56.20;;;;;;6126044;28;80178;-62
2022/08/30 13:11:48;;;;;;;6.00;3.33;;;26.60;55.30;;;;;;6124491;28;80702;-63
2022/08/30 13:14:48;;;;;;;8.88;4.72;;;26.50;55.50;;;;;;6127139;28;80309;-62
2022/08/30 13:17:49;;;;;;;9.40;5.20;;;26.60;56.50;;;;;;6125720;28;80449;-61
2022/08/30 13:20:50;;;;;;;10.73;5.95;;;26.50;56.30;;;;;;6117305;28;80860;-59
2022/08/30 13:23:50;;;;;;;11.75;6.25;;;26.50;56.30;;;;;;6107681;28;80265;-59
2022/08/30 13:26:51;;;;;;;11.77;5.68;;;26.50;56.20;;;;;;6120501;28;80433;-58
2022/08/30 13:29:51;;;;;;;8.93;5.13;;;26.50;55.40;;;;;;6117348;28;83373;-58
2022/08/30 13:32:52;;;;;;;5.78;4.78;;;26.50;55.30;;;;;;6130156;28;80636;-58
2022/08/30 13:35:52;;;;;;;6.30;4.20;;;26.50;55.30;;;;;;6121430;28;85959;-63
2022/08/30 13:38:53;;;;;;;13.63;5.40;;;26.50;55.20;;;;;;6126027;28;80435;-62
2022/08/30 13:41:53;;;;;;;11.60;4.90;;;26.50;55.60;;;;;;6111329;28;83344;-63
2022/08/30 13:44:54;;;;;;;12.65;4.65;;;26.60;56.20;;;;;;6099716;28;81037;-62
2022/08/30 13:47:54;;;;;;;9.43;4.15;;;26.60;56.00;;;;;;6109599;28;80851;-64
2022/08/30 13:50:55;;;;;;;5.47;3.47;;;26.60;55.70;;;;;;6097188;28;81703;-62
2022/08/30 13:53:56;;;;;;;3.78;3.00;;;26.50;55.30;;;;;;6118936;28;81269;-63
2022/08/30 13:56:57;;;;;;;11.18;3.42;;;26.50;54.60;;;;;;6133246;28;83407;-64
2022/08/30 13:59:57;;;;;;;5.75;3.20;;;26.50;54.20;;;;;;6118589;28;80649;-66
2022/08/30 14:02:58;;;;;;;5.03;3.20;;;26.50;54.40;;;;;;6123304;28;80431;-65
2022/08/30 14:05:58;;;;;;;12.18;4.25;;;26.50;54.80;;;;;;6122845;28;80513;-68
2022/08/30 14:08:59;;;;;;;3.92;2.70;;;26.50;54.70;;;;;;6127988;28;80258;-58
2022/08/30 14:11:59;;;;;;;6.55;3.03;;;26.50;54.80;;;;;;6141511;28;80201;-62
2022/08/30 14:15:01;;;;;;;11.52;3.63;;;26.50;55.00;;;;;;6124856;28;80538;-63
2022/08/30 14:18:02;;;;;;;6.20;3.10;;;26.60;55.10;;;;;;6126078;28;83292;-57
2022/08/30 14:21:02;;;;;;;6.05;2.63;;;26.60;55.30;;;;;;6124479;28;81793;-63
2022/08/30 14:24:05;;;;;;;3.42;2.30;;;26.60;55.30;;;;;;6125904;28;86842;-59
2022/08/30 14:27:05;;;;;;;5.53;2.92;;;26.60;55.50;;;;;;6115343;28;81045;-57
2022/08/30 14:30:06;;;;;;;6.00;2.78;;;26.60;55.40;;;;;;6104145;28;80503;-61
2022/08/30 14:33:06;;;;;;;3.72;2.47;;;26.60;55.40;;;;;;6109531;28;81190;-58
2022/08/30 14:36:07;;;;;;;4.00;2.53;;;26.60;55.20;;;;;;6123229;28;81286;-59
2022/08/30 14:39:07;;;;;;;4.43;2.35;;;26.60;55.30;;;;;;6123514;28;80301;-59
2022/08/30 14:42:08;;;;;;;4.45;2.30;;;26.50;55.30;;;;;;6119677;28;80530;-62
2022/08/30 14:45:08;;;;;;;4.28;2.53;;;26.50;55.30;;;;;;6119989;28;80813;-58
2022/08/30 14:48:09;;;;;;;10.80;4.15;;;26.50;55.50;;;;;;6120921;28;80809;-58
2022/08/30 14:51:09;;;;;;;9.60;3.97;;;26.50;56.20;;;;;;6105210;28;83195;-58
2022/08/30 14:54:10;;;;;;;16.65;5.20;;;26.50;56.50;;;;;;6113532;28;80761;-59
2022/08/30 14:57:10;;;;;;;15.25;5.40;;;26.60;56.80;;;;;;6106352;28;81981;-60
2022/08/30 15:00:11;;;;;;;16.00;6.50;;;26.60;57.30;;;;;;6113322;28;80692;-59
2022/08/30 15:03:12;;;;;;;17.38;6.60;;;26.60;57.30;;;;;;6115244;28;81505;-66
2022/08/30 15:06:12;;;;;;;18.98;6.18;;;26.60;57.30;;;;;;6118263;28;81776;-59
2022/08/30 15:09:13;;;;;;;16.95;5.63;;;26.60;56.80;;;;;;6114297;28;80444;-59
2022/08/30 15:12:13;;;;;;;12.27;5.13;;;26.60;56.60;;;;;;6102537;28;81508;-59
2022/08/30 15:15:14;;;;;;;10.05;4.72;;;26.50;56.40;;;;;;6103325;28;80568;-58
2022/08/30 15:18:14;;;;;;;6.88;3.58;;;26.50;55.90;;;;;;6112151;28;83050;-59
2022/08/30 15:21:15;;;;;;;5.60;2.97;;;26.50;55.30;;;;;;6103999;28;80959;-59
2022/08/30 15:24:15;;;;;;;9.15;2.80;;;26.50;54.80;;;;;;6101898;28;80266;-58
2022/08/30 15:27:16;;;;;;;4.13;2.70;;;26.50;55.00;;;;;;6104624;28;80985;-58
2022/08/30 15:30:16;;;;;;;3.00;2.33;;;26.50;54.80;;;;;;6106263;28;80108;-59
2022/08/30 15:33:17;;;;;;;2.67;2.30;;;26.40;54.30;;;;;;6100094;28;81270;-59
2022/08/30 15:36:17;;;;;;;8.57;2.72;;;26.40;54.50;;;;;;6105717;28;81113;-59
2022/08/30 15:39:18;;;;;;;3.88;2.72;;;26.40;54.50;;;;;;6103713;28;83062;-59
2022/08/30 15:42:18;;;;;;;3.45;2.28;;;26.40;54.40;;;;;;6096657;28;81469;-60
2022/08/30 15:45:19;;;;;;;5.60;2.55;;;26.40;54.70;;;;;;6110139;28;83873;-60
2022/08/30 15:48:19;;;;;;;4.93;2.55;;;26.30;54.60;;;;;;6100564;28;83576;-61